Flight Track Log - Related Links

Times and Time Zones

All times are in EDT time to prevent confusion due to time zone crossing. See the DCM6419 flight status page for this flight to view local times or setup timezone preferences in your user account.

Time Position Orientation Groundspeed Altitude Reporting Facility
EDT Latitude Longitude Course Direction KTS MPH feet Rate Location/Type
Fri 02:26:06 PM 30.5406 -88.5531 270° West 172 198 3,200  Level Houston Center
Fri 02:27:08 PM 30.5903 -88.5514 North 178 205 5,300 2,032 Climbing Houston Center
Fri 02:28:10 PM 30.6242 -88.5894 316° Northwest 165 190 7,400 1,935 Climbing Houston Center
Fri 02:29:12 PM 30.6528 -88.6342 307° West 169 194 9,300 1,306 Climbing Houston Center
Fri 02:30:14 PM 30.6617 -88.6944 280° West 192 221 10,100 823 Climbing Houston Center
Fri 02:31:00 PM 30.6000 -88.9402 270° West  Level FlightAware Approximate
Fri 02:31:16 PM 30.6789 -88.7833 283° West 228 262 11,000  Level Houston Center
Fri 02:32:19 PM 30.7003 -88.8492 291° West 218 251 12,700 1,632 Climbing Houston Center
Fri 02:33:21 PM 30.7178 -88.9147 287° West 215 247 14,400 1,597 Climbing Houston Center
Fri 02:34:23 PM 30.7344 -88.9811 286° West 211 243 16,000 1,403 Climbing Houston Center
Fri 02:35:25 PM 30.7561 -89.0458 291° West 214 246 17,300 1,210 Climbing Houston Center
Fri 02:36:27 PM 30.7786 -89.1117 292° West 218 251 18,500 1,258 Climbing Houston Center
Fri 02:37:29 PM 30.8069 -89.1900 293° West 220 253 19,900 1,210 Climbing Houston Center
Fri 02:38:31 PM 30.8272 -89.2528 291° West 213 245 21,000 823 Climbing Houston Center
Fri 02:39:33 PM 30.8450 -89.3203 287° West 217 250 21,600 484 Climbing Houston Center
Fri 02:40:35 PM 30.8681 -89.3897 291° West 228 262 22,000 192 Climbing Houston Center
Fri 02:41:38 PM 30.8906 -89.4664 289° West 247 284 22,000  Level Houston Center
Fri 02:42:40 PM 30.9217 -89.5586 291° West 255 293 22,000  Level Houston Center
Fri 02:43:42 PM 30.9481 -89.6364 292° West 258 297 22,000  Level Houston Center
Fri 02:44:44 PM 30.9725 -89.7136 290° West 256 295 22,000  Level Houston Center
Fri 02:45:46 PM 30.9967 -89.7903 290° West 254 292 22,000  Level Houston Center
Fri 02:46:48 PM 31.0192 -89.8686 289° West 255 293 22,000  Level Houston Center
Fri 02:47:51 PM 31.0478 -89.9614 290° West 254 292 22,000  Level Houston Center
Fri 02:48:53 PM 31.0714 -90.0392 290° West 254 292 22,000  Level Houston Center
Fri 02:49:55 PM 31.0961 -90.1167 290° West 254 292 22,000  Level Houston Center
Fri 02:50:57 PM 31.1222 -90.1950 291° West 259 298 22,000  Level Houston Center
Fri 02:51:59 PM 31.1475 -90.2731 291° West 257 296 22,000  Level Houston Center
Fri 02:53:01 PM 31.1781 -90.3675 291° West 259 298 22,000  Level Houston Center
Fri 02:54:04 PM 31.2014 -90.4467 289° West 258 297 22,000  Level Houston Center
Fri 02:55:05 PM 31.2261 -90.5239 291° West 254 292 22,000  Level Houston Center
Fri 02:56:08 PM 31.2506 -90.6025 290° West 256 295 22,000  Level Houston Center
Fri 02:57:10 PM 31.2758 -90.6814 291° West 259 298 22,000  Level Houston Center
Fri 02:58:12 PM 31.3003 -90.7600 290° West 258 297 22,000  Level Houston Center
Fri 02:59:14 PM 31.3303 -90.8550 290° West 260 299 22,000  Level Houston Center
Fri 03:00:16 PM 31.3533 -90.9358 288° West 262 302 22,000  Level Houston Center
Fri 03:01:18 PM 31.3775 -91.0167 289° West 264 304 22,000  Level Houston Center
Fri 03:02:20 PM 31.4011 -91.0967 289° West 260 299 22,000  Level Houston Center
Fri 03:03:22 PM 31.4278 -91.1914 288° West 261 300 22,000  Level Houston Center
Fri 03:04:24 PM 31.4506 -91.2717 288° West 260 299 22,000  Level Houston Center
Fri 03:05:26 PM 31.4719 -91.3486 288° West 250 288 22,000  Level Houston Center
Fri 03:06:29 PM 31.4922 -91.4261 287° West 249 287 22,000  Level Houston Center
Fri 03:07:31 PM 31.5119 -91.5006 287° West 242 278 22,000  Level Houston Center
Fri 03:08:33 PM 31.5336 -91.5792 288° West 250 288 22,000 48 Level Houston Center
Fri 03:09:35 PM 31.5581 -91.6744 287° West 255 293 22,100 48 Climbing Houston Center
Fri 03:10:37 PM 31.5786 -91.7536 287° West 255 293 22,100  Level Houston Center
Fri 03:11:39 PM 31.6017 -91.8294 290° West 249 287 22,100 -145 Level Houston Center
Fri 03:12:41 PM 31.6225 -91.9042 288° West 243 280 21,800 -532 Descending Houston Center
Fri 03:13:43 PM 31.6447 -91.9850 288° West 257 296 21,000 -726 Descending Houston Center
Fri 03:14:45 PM 31.6733 -92.0825 289° West 263 303 20,300 -484 Descending Houston Center
Fri 03:15:47 PM 31.6961 -92.1647 288° West 265 305 20,000 -144 Descending Houston Center
Fri 03:16:50 PM 31.7136 -92.2450 284° West 259 298 20,000  Level Houston Center
Fri 03:17:52 PM 31.7314 -92.3217 285° West 250 288 20,000 -145 Level Houston Center
Fri 03:18:54 PM 31.7517 -92.3983 287° West 247 284 19,700 -581 Descending Houston Center
Fri 03:19:56 PM 31.7717 -92.4986 283° West 261 300 18,800 -720 Descending Houston Center
Fri 03:20:59 PM 31.7908 -92.5817 285° West 265 305 18,200 -581 Descending Houston Center
Fri 03:22:00 PM 31.8169 -92.6619 291° West 264 304 17,600 -488 Descending Houston Center
Fri 03:23:02 PM 31.8411 -92.7442 289° West 267 307 17,200 -339 Descending Houston Center
Fri 03:24:04 PM 31.8661 -92.8267 290° West 268 308 16,900 -339 Descending Houston Center
Fri 03:25:06 PM 31.8992 -92.9244 292° West 270 311 16,500 -336 Descending Houston Center
Fri 03:26:09 PM 31.9261 -93.0067 291° West 270 311 16,200 -192 Descending Houston Center
Fri 03:27:11 PM 31.9547 -93.0872 293° West 268 308 16,100 -48 Descending Houston Center
Fri 03:28:13 PM 31.9819 -93.1653 292° West 261 300 16,100  Level Houston Center
Fri 03:29:15 PM 32.0047 -93.2442 289° West 257 296 16,100  Level Houston Center
Fri 03:30:17 PM 32.0258 -93.3256 287° West 259 298 16,100  Level Houston Center
Fri 03:31:19 PM 32.0511 -93.4206 287° West 255 293 16,100  Level Houston Center
Fri 03:32:21 PM 32.0717 -93.5025 287° West 260 299 16,100 -339 Level Houston Center
Fri 03:33:23 PM 32.0942 -93.5836 288° West 261 300 15,400 -677 Descending Houston Center

Login

Don't have an account? Register now (free) for customized features, flight alerts, and more!